Terminal Aerodrome Forecast
Issued by NWS Louisville, KY

Home | Current Version | Previous Version | Text Only | Print | Product List | Glossary On
Versions: 1 2 3 4 5 6 7 8 9 10 11 12 13 14 15 16 17 18
474
FTUS43 KLMK 272324
TAFLEX
TAF
KLEX 272324Z 2800/2824 19012KT P6SM VCSH BKN035
     FM280200 20009KT 4SM -TSRA BKN035CB
      TEMPO 2803/2806 2SM TSRA BKN015CB
     FM280600 20008KT 5SM BR VCSH BKN015
     FM280900 20009KT 5SM BR BKN008
     FM281300 23010KT P6SM BKN015
     FM281800 25014G21KT P6SM SCT015 BKN025=

USA.gov is the U.S. government's official web portal to all federal, state and local government web resources and services.